Time,TemperatureF,DewpointF,PressureIn,WindDirection,WindDirectionDegrees,WindSpeedMPH,WindSpeedGustMPH,Humidity,HourlyPrecipIn,Conditions,Clouds,dailyrainin,SoftwareType,DateUTC
2013-02-14 00:06:00,31.5,28.6,29.67,WSW,247,7.8,-999.0,89,-99.99,,,0.00,Acu-Link.com,2013-02-14 05:06:00,
2013-02-14 00:21:00,31.5,28.4,29.68,SW,225,2.2,-999.0,88,-99.99,,,0.00,Acu-Link.com,2013-02-14 05:21:00,
2013-02-14 00:36:00,31.5,28.4,29.69,SSE,157,3.2,-999.0,88,-99.99,,,0.00,Acu-Link.com,2013-02-14 05:36:00,
2013-02-14 00:51:00,31.3,28.2,29.69,NE,45,2.7,-999.0,88,-99.99,,,0.00,Acu-Link.com,2013-02-14 05:51:00,
2013-02-14 01:06:00,31.1,28.0,29.70,SW,225,3.2,-999.0,88,-99.99,,,0.00,Acu-Link.com,2013-02-14 06:06:00,
2013-02-14 01:22:00,31.1,27.4,29.70,NW,315,4.2,-999.0,86,-99.99,,,0.00,Acu-Link.com,2013-02-14 06:22:00,
2013-02-14 01:37:00,31.1,27.4,29.71,West,270,8.9,-999.0,86,-99.99,,,0.00,Acu-Link.com,2013-02-14 06:37:00,
2013-02-14 01:52:00,30.9,26.9,29.72,WSW,247,5.3,-999.0,85,-99.99,,,0.00,Acu-Link.com,2013-02-14 06:52:00,
2013-02-14 02:08:00,30.7,26.7,29.73,WSW,247,2.2,-999.0,85,-99.99,,,0.00,Acu-Link.com,2013-02-14 07:08:00,
2013-02-14 02:23:00,30.4,26.4,29.73,West,270,3.7,-999.0,85,-99.99,,,0.00,Acu-Link.com,2013-02-14 07:23:00,
2013-02-14 02:38:00,30.2,26.0,29.74,WNW,292,4.7,-999.0,84,-99.99,,,0.00,Acu-Link.com,2013-02-14 07:38:00,
2013-02-14 02:54:00,29.8,25.6,29.74,West,270,3.7,-999.0,84,-99.99,,,0.00,Acu-Link.com,2013-02-14 07:54:00,
2013-02-14 03:09:00,29.8,25.9,29.73,NE,45,4.2,-999.0,85,-99.99,,,0.00,Acu-Link.com,2013-02-14 08:09:00,
2013-02-14 03:24:00,29.3,25.9,29.73,SE,135,3.2,-999.0,87,-99.99,,,0.00,Acu-Link.com,2013-02-14 08:24:00,
2013-02-14 03:40:00,29.7,25.2,29.75,NE,45,4.2,-999.0,83,-99.99,,,0.00,Acu-Link.com,2013-02-14 08:40:00,
2013-02-14 03:55:00,29.3,25.4,29.74,NE,45,3.7,-999.0,85,-99.99,,,0.00,Acu-Link.com,2013-02-14 08:55:00,
2013-02-14 04:15:00,29.1,25.4,29.75,WSW,247,3.7,-999.0,86,-99.99,,,0.00,Acu-Link.com,2013-02-14 09:15:00,
2013-02-14 04:30:00,28.6,25.2,29.75,WNW,292,3.2,-999.0,87,-99.99,,,0.00,Acu-Link.com,2013-02-14 09:30:00,
2013-02-14 04:46:00,28.6,25.0,29.75,NW,315,9.4,-999.0,86,-99.99,,,0.00,Acu-Link.com,2013-02-14 09:46:00,
2013-02-14 05:01:00,28.2,24.8,29.75,West,270,4.7,-999.0,87,-99.99,,,0.00,Acu-Link.com,2013-02-14 10:01:00,
2013-02-14 05:16:00,28.0,24.4,29.76,WSW,247,6.3,-999.0,86,-99.99,,,0.00,Acu-Link.com,2013-02-14 10:16:00,
2013-02-14 05:31:00,27.9,23.7,29.76,NW,315,6.8,-999.0,84,-99.99,,,0.00,Acu-Link.com,2013-02-14 10:31:00,
2013-02-14 05:46:00,27.1,23.5,29.78,WSW,247,2.2,-999.0,86,-99.99,,,0.00,Acu-Link.com,2013-02-14 10:46:00,
2013-02-14 06:02:00,26.6,23.0,29.78,NW,315,3.2,-999.0,86,-99.99,,,0.00,Acu-Link.com,2013-02-14 11:02:00,
2013-02-14 06:17:00,27.0,23.1,29.78,NNW,337,4.2,-999.0,85,-99.99,,,0.00,Acu-Link.com,2013-02-14 11:17:00,
2013-02-14 06:32:00,26.4,22.5,29.79,SSW,202,2.7,-999.0,85,-99.99,,,0.00,Acu-Link.com,2013-02-14 11:32:00,
2013-02-14 06:48:00,25.9,22.3,29.80,WNW,292,2.2,-999.0,86,-99.99,,,0.00,Acu-Link.com,2013-02-14 11:48:00,
2013-02-14 07:03:00,25.9,22.0,29.80,SW,225,3.2,-999.0,85,-99.99,,,0.00,Acu-Link.com,2013-02-14 12:03:00,
2013-02-14 07:18:00,25.9,22.0,29.80,ENE,67,0.0,-999.0,85,-99.99,,,0.00,Acu-Link.com,2013-02-14 12:18:00,
2013-02-14 07:34:00,25.2,21.6,29.81,ESE,112,1.1,-999.0,86,-99.99,,,0.00,Acu-Link.com,2013-02-14 12:34:00,
2013-02-14 07:49:00,25.5,21.6,29.82,WSW,247,2.2,-999.0,85,-99.99,,,0.00,Acu-Link.com,2013-02-14 12:49:00,
2013-02-14 08:04:00,27.0,23.1,29.82,NNE,22,0.0,-999.0,85,-99.99,,,0.00,Acu-Link.com,2013-02-14 13:04:00,
2013-02-14 08:19:00,28.6,22.6,29.84,SSE,157,2.2,-999.0,78,-99.99,,,0.00,Acu-Link.com,2013-02-14 13:19:00,
2013-02-14 08:34:00,29.1,23.4,29.84,WSW,247,5.3,-999.0,79,-99.99,,,0.00,Acu-Link.com,2013-02-14 13:34:00,
2013-02-14 08:50:00,29.8,22.9,29.84,West,270,2.2,-999.0,75,-99.99,,,0.00,Acu-Link.com,2013-02-14 13:50:00,
2013-02-14 09:05:00,31.6,23.3,29.85,WSW,247,2.7,-999.0,71,-99.99,,,0.00,Acu-Link.com,2013-02-14 14:05:00,
2013-02-14 09:20:00,31.5,23.9,29.87,SSE,157,0.0,-999.0,73,-99.99,,,0.00,Acu-Link.com,2013-02-14 14:20:00,
2013-02-14 09:36:00,32.9,23.2,29.86,NW,315,4.7,-999.0,67,-99.99,,,0.00,Acu-Link.com,2013-02-14 14:36:00,
2013-02-14 09:51:00,33.6,24.5,29.85,North,0,3.7,-999.0,69,-99.99,,,0.00,Acu-Link.com,2013-02-14 14:51:00,
2013-02-14 10:06:00,33.8,22.6,29.85,SSW,202,2.7,-999.0,63,-99.99,,,0.00,Acu-Link.com,2013-02-14 15:06:00,
2013-02-14 10:22:00,34.2,24.4,29.85,West,270,1.7,-999.0,67,-99.99,,,0.00,Acu-Link.com,2013-02-14 15:22:00,
2013-02-14 10:37:00,34.2,25.5,29.84,WSW,247,2.7,-999.0,70,-99.99,,,0.00,Acu-Link.com,2013-02-14 15:37:00,
2013-02-14 10:52:00,36.0,25.8,29.77,SW,225,2.2,-999.0,66,-99.99,,,0.00,Acu-Link.com,2013-02-14 15:52:00,
2013-02-14 11:07:00,35.4,26.9,29.76,WSW,247,2.7,-999.0,71,-99.99,,,0.00,Acu-Link.com,2013-02-14 16:07:00,
2013-02-14 11:23:00,37.6,28.4,29.75,SSW,202,2.7,-999.0,69,-99.99,,,0.00,Acu-Link.com,2013-02-14 16:23:00,
2013-02-14 11:38:00,37.4,26.7,29.73,WSW,247,3.7,-999.0,65,-99.99,,,0.00,Acu-Link.com,2013-02-14 16:38:00,
2013-02-14 11:53:00,37.6,26.2,29.73,NNW,337,3.7,-999.0,63,-99.99,,,0.00,Acu-Link.com,2013-02-14 16:53:00,
2013-02-14 12:09:00,38.8,26.1,29.71,West,270,5.3,-999.0,60,-99.99,,,0.00,Acu-Link.com,2013-02-14 17:09:00,
2013-02-14 12:24:00,38.8,25.3,29.70,WNW,292,3.2,-999.0,58,-99.99,,,0.00,Acu-Link.com,2013-02-14 17:24:00,
2013-02-14 12:39:00,40.3,25.4,29.71,WSW,247,6.3,-999.0,55,-99.99,,,0.00,Acu-Link.com,2013-02-14 17:39:00,
2013-02-14 12:54:00,41.2,26.3,29.71,WSW,247,7.3,-999.0,55,-99.99,,,0.00,Acu-Link.com,2013-02-14 17:54:00,
2013-02-14 13:10:00,41.2,25.8,29.70,SSE,157,6.3,-999.0,54,-99.99,,,0.00,Acu-Link.com,2013-02-14 18:10:00,
2013-02-14 13:25:00,41.7,26.3,29.71,SSW,202,3.2,-999.0,54,-99.99,,,0.00,Acu-Link.com,2013-02-14 18:25:00,
2013-02-14 13:40:00,42.8,26.9,29.71,SW,225,4.7,-999.0,53,-99.99,,,0.00,Acu-Link.com,2013-02-14 18:40:00,
2013-02-14 13:56:00,43.0,26.1,29.71,WSW,247,4.7,-999.0,51,-99.99,,,0.00,Acu-Link.com,2013-02-14 18:56:00,
2013-02-14 14:11:00,43.2,25.8,29.71,WSW,247,4.2,-999.0,50,-99.99,,,0.00,Acu-Link.com,2013-02-14 19:11:00,
2013-02-14 14:26:00,45.0,26.0,29.72,West,270,7.8,-999.0,47,-99.99,,,0.00,Acu-Link.com,2013-02-14 19:26:00,
2013-02-14 14:41:00,44.2,23.1,29.71,WSW,247,10.4,-999.0,43,-99.99,,,0.00,Acu-Link.com,2013-02-14 19:41:00,
2013-02-14 14:57:00,44.4,22.2,29.70,WSW,247,6.8,-999.0,41,-99.99,,,0.00,Acu-Link.com,2013-02-14 19:57:00,
2013-02-14 15:12:00,45.3,23.6,29.69,WSW,247,5.8,-999.0,42,-99.99,,,0.00,Acu-Link.com,2013-02-14 20:12:00,
2013-02-14 15:27:00,45.5,23.2,29.69,West,270,6.8,-999.0,41,-99.99,,,0.00,Acu-Link.com,2013-02-14 20:27:00,
2013-02-14 15:43:00,45.3,23.0,29.70,WSW,247,6.8,-999.0,41,-99.99,,,0.00,Acu-Link.com,2013-02-14 20:43:00,
2013-02-14 15:58:00,45.5,23.2,29.73,WSW,247,7.8,-999.0,41,-99.99,,,0.00,Acu-Link.com,2013-02-14 20:58:00,
2013-02-14 16:13:00,46.0,23.6,29.75,West,270,8.3,-999.0,41,-99.99,,,0.00,Acu-Link.com,2013-02-14 21:13:00,
2013-02-14 16:29:00,46.8,24.9,29.77,SW,225,4.7,-999.0,42,-99.99,,,0.00,Acu-Link.com,2013-02-14 21:29:00,
2013-02-14 16:44:00,45.1,22.8,29.78,West,270,8.3,-999.0,41,-99.99,,,0.00,Acu-Link.com,2013-02-14 21:44:00,
2013-02-14 16:59:00,45.7,22.2,29.79,West,270,10.9,-999.0,39,-99.99,,,0.00,Acu-Link.com,2013-02-14 21:59:00,
2013-02-14 17:14:00,44.8,22.6,29.79,WSW,247,5.3,-999.0,41,-99.99,,,0.00,Acu-Link.com,2013-02-14 22:14:00,
2013-02-14 17:30:00,43.7,22.7,29.80,SW,225,4.2,-999.0,43,-99.99,,,0.00,Acu-Link.com,2013-02-14 22:30:00,
2013-02-14 17:45:00,42.8,22.4,29.81,WSW,247,5.3,-999.0,44,-99.99,,,0.00,Acu-Link.com,2013-02-14 22:45:00,
2013-02-14 18:00:00,41.4,21.1,29.82,WSW,247,6.3,-999.0,44,-99.99,,,0.00,Acu-Link.com,2013-02-14 23:00:00,
2013-02-14 18:15:00,40.5,21.9,29.82,West,270,5.3,-999.0,47,-99.99,,,0.00,Acu-Link.com,2013-02-14 23:15:00,
2013-02-14 18:31:00,38.8,21.3,29.83,WSW,247,3.2,-999.0,49,-99.99,,,0.00,Acu-Link.com,2013-02-14 23:31:00,
2013-02-14 18:46:00,36.9,21.4,29.84,ENE,67,0.0,-999.0,53,-99.99,,,0.00,Acu-Link.com,2013-02-14 23:46:00,
2013-02-14 19:01:00,37.0,22.4,29.84,WNW,292,1.7,-999.0,55,-99.99,,,0.00,Acu-Link.com,2013-02-15 00:01:00,
2013-02-14 19:17:00,37.9,23.2,29.85,West,270,5.3,-999.0,55,-99.99,,,0.00,Acu-Link.com,2013-02-15 00:17:00,
2013-02-14 19:32:00,38.3,24.0,29.85,West,270,4.7,-999.0,56,-99.99,,,0.00,Acu-Link.com,2013-02-15 00:32:00,
2013-02-14 19:47:00,38.8,24.9,29.85,South,180,3.2,-999.0,57,-99.99,,,0.00,Acu-Link.com,2013-02-15 00:47:00,
2013-02-14 20:03:00,37.8,25.2,29.85,WSW,247,1.1,-999.0,60,-99.99,,,0.00,Acu-Link.com,2013-02-15 01:03:00,
2013-02-14 20:18:00,37.8,25.6,29.84,WNW,292,7.3,-999.0,61,-99.99,,,0.00,Acu-Link.com,2013-02-15 01:18:00,
2013-02-14 20:33:00,36.9,25.5,29.85,NNE,22,2.2,-999.0,63,-99.99,,,0.00,Acu-Link.com,2013-02-15 01:33:00,
2013-02-14 20:48:00,36.7,25.7,29.86,SSE,157,0.0,-999.0,64,-99.99,,,0.00,Acu-Link.com,2013-02-15 01:48:00,
2013-02-14 21:04:00,35.2,25.7,29.85,ESE,112,2.7,-999.0,68,-99.99,,,0.00,Acu-Link.com,2013-02-15 02:04:00,
2013-02-14 21:19:00,34.9,25.8,29.85,ESE,112,1.7,-999.0,69,-99.99,,,0.00,Acu-Link.com,2013-02-15 02:19:00,
2013-02-14 21:34:00,34.2,25.8,29.86,SSE,157,2.2,-999.0,71,-99.99,,,0.00,Acu-Link.com,2013-02-15 02:34:00,
2013-02-14 21:50:00,34.5,25.7,29.87,ESE,112,0.0,-999.0,70,-99.99,,,0.00,Acu-Link.com,2013-02-15 02:50:00,
2013-02-14 22:05:00,33.6,25.9,29.87,South,180,0.0,-999.0,73,-99.99,,,0.00,Acu-Link.com,2013-02-15 03:05:00,
2013-02-14 22:20:00,34.0,25.9,29.88,SSE,157,2.2,-999.0,72,-99.99,,,0.00,Acu-Link.com,2013-02-15 03:20:00,
2013-02-14 22:36:00,33.8,26.1,29.89,SW,225,1.7,-999.0,73,-99.99,,,0.00,Acu-Link.com,2013-02-15 03:36:00,
2013-02-14 22:51:00,33.1,26.1,29.89,WSW,247,2.7,-999.0,75,-99.99,,,0.00,Acu-Link.com,2013-02-15 03:51:00,
2013-02-14 23:06:00,32.2,25.8,29.89,SW,225,2.2,-999.0,77,-99.99,,,0.00,Acu-Link.com,2013-02-15 04:06:00,
2013-02-14 23:21:00,31.1,25.4,29.88,SW,225,2.2,-999.0,79,-99.99,,,0.00,Acu-Link.com,2013-02-15 04:21:00,
2013-02-14 23:36:00,30.9,25.5,29.89,SW,225,2.2,-999.0,80,-99.99,,,0.00,Acu-Link.com,2013-02-15 04:36:00,
2013-02-14 23:52:00,30.9,25.5,29.88,WSW,247,2.7,-999.0,80,-99.99,,,0.00,Acu-Link.com,2013-02-15 04:52:00,